Time;durP1;ratioP1;P1;durP2;ratioP2;P2;SDS_P1;SDS_P2;PMS_P1;PMS_P2;Temp;Humidity;BMP_temperature;BMP_pressure;BME280_temperature;BME280_humidity;BME280_pressure;Samples;Min_cycle;Max_cycle;Signal;HPM_P1;HPM_P2
2023/04/15 10:09:30;;;;;;;6.60;1.20;;;;;;;;;;5018679;28;20625;-81
2023/04/15 10:11:56;;;;;;;9.40;1.77;;;;;;;;;;5013457;28;20552;-83
2023/04/15 10:14:23;;;;;;;8.93;1.58;;;;;;;;;;5009917;28;20080;-77
2023/04/15 10:16:50;;;;;;;5.82;1.45;;;;;;;;;;5006043;28;20030;-78
2023/04/15 10:19:20;;;;;;;6.25;1.20;;;;;;;;;;5009488;28;20042;-77
2023/04/15 10:21:46;;;;;;;9.40;1.30;;;;;;;;;;5007259;28;20030;-83
2023/04/15 10:24:12;;;;;;;6.78;1.15;;;;;;;;;;5007220;28;20117;-81
2023/04/15 10:26:37;;;;;;;9.98;1.52;;;;;;;;;;5006586;28;20101;-83
2023/04/15 10:29:03;;;;;;;6.75;1.17;;;;;;;;;;5006888;28;20029;-80
2023/04/15 10:31:29;;;;;;;8.48;1.40;;;;;;;;;;5006705;28;20101;-80
2023/04/15 10:33:56;;;;;;;7.55;1.48;;;;;;;;;;5007081;28;20169;-80
2023/04/15 10:36:21;;;;;;;7.85;1.50;;;;;;;;;;5006620;28;20026;-80
2023/04/15 10:38:47;;;;;;;8.82;1.30;;;;;;;;;;5006833;28;20030;-80
2023/04/15 10:41:17;;;;;;;7.43;1.30;;;;;;;;;;5006725;28;20116;-83
2023/04/15 10:43:54;;;;;;;6.88;1.00;;;;;;;;;;5006824;28;20066;-81
2023/04/15 10:46:41;;;;;;;3.28;1.08;;;;;;;;;;5006425;28;20033;-76
2023/04/15 10:49:16;;;;;;;7.85;1.35;;;;;;;;;;5006238;28;20565;-81
2023/04/15 10:51:44;;;;;;;6.28;1.10;;;;;;;;;;5006261;28;20022;-80
2023/04/15 10:54:31;;;;;;;5.40;1.33;;;;;;;;;;5006442;28;20022;-80
2023/04/15 10:57:02;;;;;;;4.78;1.10;;;;;;;;;;5006302;28;20108;-81
2023/04/15 10:59:29;;;;;;;5.57;1.20;;;;;;;;;;5006704;28;20041;-81
2023/04/15 11:01:58;;;;;;;6.25;1.35;;;;;;;;;;5006441;28;20022;-80
2023/04/15 11:04:56;;;;;;;6.53;1.23;;;;;;;;;;5006515;28;20034;-84
2023/04/15 11:07:38;;;;;;;6.28;1.20;;;;;;;;;;5007903;28;20068;-82
2023/04/15 11:10:30;;;;;;;6.68;1.65;;;;;;;;;;5025962;28;20080;-84
2023/04/15 11:13:03;;;;;;;8.68;1.40;;;;;;;;;;5024366;28;20033;-82
2023/04/15 11:15:35;;;;;;;7.10;1.50;;;;;;;;;;5025849;28;20083;-80
2023/04/15 11:18:21;;;;;;;6.88;1.45;;;;;;;;;;5025858;28;20515;-80
2023/04/15 11:20:56;;;;;;;5.28;1.20;;;;;;;;;;5012855;28;20500;-82
2023/04/15 11:23:27;;;;;;;7.18;1.50;;;;;;;;;;5012488;28;20098;-80
2023/04/15 11:25:54;;;;;;;6.15;1.30;;;;;;;;;;5012090;28;20091;-81
2023/04/15 11:28:20;;;;;;;8.00;1.50;;;;;;;;;;5012365;28;20040;-80
2023/04/15 11:30:45;;;;;;;7.25;1.52;;;;;;;;;;5012359;28;20022;-80
2023/04/15 11:33:12;;;;;;;8.07;1.35;;;;;;;;;;5012557;28;20026;-81
2023/04/15 11:35:40;;;;;;;7.95;1.50;;;;;;;;;;5012454;28;20026;-80
2023/04/15 11:38:09;;;;;;;8.38;1.42;;;;;;;;;;5012201;28;20041;-81
2023/04/15 11:40:35;;;;;;;7.05;1.20;;;;;;;;;;5012134;28;20397;-80
2023/04/15 11:43:03;;;;;;;6.50;1.35;;;;;;;;;;5011946;28;20481;-77
2023/04/15 11:45:28;;;;;;;8.00;1.50;;;;;;;;;;5012251;28;20080;-81
2023/04/15 11:47:53;;;;;;;8.00;1.13;;;;;;;;;;5012029;28;20030;-80
2023/04/15 11:50:20;;;;;;;6.03;1.10;;;;;;;;;;5012088;28;20026;-81
2023/04/15 11:52:56;;;;;;;6.47;1.15;;;;;;;;;;5012168;28;20030;-78
2023/04/15 11:55:23;;;;;;;5.22;1.05;;;;;;;;;;5012079;28;20083;-81
2023/04/15 11:58:07;;;;;;;6.65;1.45;;;;;;;;;;5011668;28;20026;-81
2023/04/15 12:00:33;;;;;;;7.15;1.30;;;;;;;;;;5011498;28;20405;-80
2023/04/15 12:03:42;;;;;;;8.02;1.23;;;;;;;;;;5011693;28;20029;-81
2023/04/15 12:06:22;;;;;;;5.20;1.25;;;;;;;;;;4991950;28;20092;-80
2023/04/15 12:09:14;;;;;;;7.83;1.20;;;;;;;;;;5011522;28;20082;-80
2023/04/15 12:11:44;;;;;;;7.00;1.20;;;;;;;;;;5011615;28;20273;-81
2023/04/15 12:14:27;;;;;;;;;;;;;;;;;;5012022;28;20116;-80
2023/04/15 12:16:56;;;;;;;3.88;1.13;;;;;;;;;;5011257;28;20000;-81
2023/04/15 12:19:39;;;;;;;9.27;1.10;;;;;;;;;;5011380;28;20393;-84
2023/04/15 12:22:08;;;;;;;7.85;1.23;;;;;;;;;;5011620;28;20022;-82
2023/04/15 12:24:35;;;;;;;5.30;1.75;;;;;;;;;;5011640;28;20497;-81
2023/04/15 12:27:08;;;;;;;7.38;1.25;;;;;;;;;;5011135;28;20030;-81
2023/04/15 12:29:37;;;;;;;4.35;1.15;;;;;;;;;;5011397;28;20022;-82
2023/04/15 12:32:13;;;;;;;4.47;1.05;;;;;;;;;;5010249;28;20108;-81
2023/04/15 12:34:39;;;;;;;7.68;1.10;;;;;;;;;;5011160;28;20030;-80
2023/04/15 12:37:10;;;;;;;5.93;1.20;;;;;;;;;;5010687;28;20041;-81
2023/04/15 12:39:41;;;;;;;8.38;1.10;;;;;;;;;;5009782;28;20087;-82
2023/04/15 12:42:07;;;;;;;4.80;1.13;;;;;;;;;;5011074;28;20034;-84
2023/04/15 12:44:33;;;;;;;4.47;1.10;;;;;;;;;;5011168;28;20714;-81
2023/04/15 12:46:59;;;;;;;6.28;1.20;;;;;;;;;;5010926;28;20037;-82
2023/04/15 12:49:25;;;;;;;5.20;0.98;;;;;;;;;;5010862;28;20033;-81
2023/04/15 12:51:56;;;;;;;6.30;1.40;;;;;;;;;;5011044;28;20037;-76
2023/04/15 12:54:21;;;;;;;;;;;;;;;;;;5011296;28;20026;-79
2023/04/15 12:56:48;;;;;;;6.30;1.20;;;;;;;;;;5009071;28;20406;-80
2023/04/15 12:59:15;;;;;;;11.50;1.55;;;;;;;;;;5010851;28;20034;-81
2023/04/15 13:01:41;;;;;;;4.38;1.42;;;;;;;;;;5010751;28;20037;-81
2023/04/15 13:04:06;;;;;;;7.25;1.30;;;;;;;;;;5010915;28;20176;-82
2023/04/15 13:06:32;;;;;;;7.55;1.52;;;;;;;;;;5010497;28;20030;-83
2023/04/15 13:09:00;;;;;;;5.68;1.38;;;;;;;;;;5010303;28;20054;-80
2023/04/15 13:11:26;;;;;;;2.95;0.90;;;;;;;;;;5009319;28;20056;-79
2023/04/15 13:13:51;;;;;;;4.30;1.08;;;;;;;;;;5008799;28;20425;-74
2023/04/15 13:16:17;;;;;;;6.22;1.00;;;;;;;;;;5010438;28;20076;-72
2023/04/15 13:18:44;;;;;;;8.10;0.95;;;;;;;;;;5010577;28;20425;-74
2023/04/15 13:21:10;;;;;;;4.95;1.30;;;;;;;;;;5010607;28;20030;-73
2023/04/15 13:23:35;;;;;;;6.88;1.40;;;;;;;;;;5010509;28;20030;-75
2023/04/15 13:26:01;;;;;;;3.05;1.00;;;;;;;;;;5010272;28;20072;-75
2023/04/15 13:28:26;;;;;;;5.53;1.50;;;;;;;;;;5010036;28;20087;-90
2023/04/15 13:30:52;;;;;;;5.55;1.40;;;;;;;;;;5010815;28;20030;-80
2023/04/15 13:33:17;;;;;;;5.88;1.35;;;;;;;;;;5010992;28;20042;-79
2023/04/15 13:35:43;;;;;;;5.32;0.90;;;;;;;;;;5010836;28;20029;-84
2023/04/15 13:38:08;;;;;;;3.55;1.10;;;;;;;;;;5010436;28;20037;-84
2023/04/15 13:40:33;;;;;;;3.15;0.80;;;;;;;;;;5009137;28;20034;-83
2023/04/15 13:42:59;;;;;;;5.07;1.05;;;;;;;;;;5009812;28;20061;-84
2023/04/15 13:45:25;;;;;;;4.85;1.10;;;;;;;;;;5010084;28;20066;-81
2023/04/15 13:47:50;;;;;;;2.17;0.80;;;;;;;;;;5010455;28;20575;-84
2023/04/15 13:50:16;;;;;;;3.97;1.20;;;;;;;;;;5011124;28;20030;-83
2023/04/15 13:52:41;;;;;;;4.43;1.02;;;;;;;;;;5010973;28;20116;-83
2023/04/15 13:55:07;;;;;;;3.95;0.85;;;;;;;;;;5011603;28;20059;-82
2023/04/15 13:57:35;;;;;;;3.90;1.15;;;;;;;;;;5009295;28;20061;-81
2023/04/15 14:00:03;;;;;;;3.38;0.90;;;;;;;;;;5009914;28;20029;-81
2023/04/15 14:02:28;;;;;;;3.22;0.98;;;;;;;;;;5009790;28;20048;-80
2023/04/15 14:04:54;;;;;;;5.13;2.03;;;;;;;;;;5008516;28;20432;-81
2023/04/15 14:07:19;;;;;;;5.55;2.20;;;;;;;;;;5008099;28;20033;-80
2023/04/15 14:09:47;;;;;;;5.07;1.45;;;;;;;;;;5009877;28;20026;-81
2023/04/15 14:12:12;;;;;;;4.25;1.40;;;;;;;;;;5009753;28;20025;-79
2023/04/15 14:14:38;;;;;;;4.95;1.30;;;;;;;;;;5010054;28;20445;-81
2023/04/15 14:17:04;;;;;;;4.78;1.30;;;;;;;;;;5008212;28;20034;-81
2023/04/15 14:19:30;;;;;;;3.67;0.90;;;;;;;;;;5008293;28;20065;-80
2023/04/15 14:21:56;;;;;;;3.47;0.98;;;;;;;;;;5009723;28;20034;-81
2023/04/15 14:24:22;;;;;;;4.22;1.02;;;;;;;;;;5009563;28;20036;-81
2023/04/15 14:26:47;;;;;;;6.13;1.10;;;;;;;;;;5009560;28;20072;-78
2023/04/15 14:29:13;;;;;;;5.43;1.15;;;;;;;;;;5009443;28;20030;-80
2023/04/15 14:31:38;;;;;;;4.82;0.95;;;;;;;;;;5009744;28;20021;-81
2023/04/15 14:34:04;;;;;;;5.70;1.20;;;;;;;;;;5009663;28;20026;-81
2023/04/15 14:36:30;;;;;;;3.20;1.00;;;;;;;;;;5009410;28;20053;-80
2023/04/15 14:38:56;;;;;;;3.55;0.80;;;;;;;;;;5009060;28;20585;-81
2023/04/15 14:41:22;;;;;;;4.10;0.82;;;;;;;;;;5009613;28;20105;-71
2023/04/15 14:43:47;;;;;;;5.20;1.05;;;;;;;;;;5009507;28;20033;-80
2023/04/15 14:46:13;;;;;;;4.57;0.98;;;;;;;;;;5009525;28;20056;-80
2023/04/15 14:48:38;;;;;;;3.17;0.85;;;;;;;;;;5009351;28;20029;-80
2023/04/15 14:51:04;;;;;;;7.13;2.25;;;;;;;;;;5009580;28;20105;-80
2023/04/15 14:53:29;;;;;;;6.97;1.70;;;;;;;;;;5009356;28;20029;-79
2023/04/15 14:55:55;;;;;;;3.42;1.00;;;;;;;;;;5012364;28;20060;-80
2023/04/15 14:58:21;;;;;;;3.22;1.02;;;;;;;;;;5012756;28;20416;-80
2023/04/15 15:00:46;;;;;;;2.83;0.70;;;;;;;;;;5012967;28;20045;-78
2023/04/15 15:03:12;;;;;;;3.88;0.85;;;;;;;;;;5013005;28;20022;-82
2023/04/15 15:05:42;;;;;;;2.13;0.70;;;;;;;;;;5012997;28;20528;-77
2023/04/15 15:08:08;;;;;;;2.50;0.70;;;;;;;;;;5012482;28;20137;-80
2023/04/15 15:10:35;;;;;;;2.97;0.82;;;;;;;;;;5012938;28;20112;-80
2023/04/15 15:13:05;;;;;;;3.95;0.98;;;;;;;;;;5012612;28;20022;-73
2023/04/15 15:15:30;;;;;;;6.18;1.23;;;;;;;;;;5012614;28;20037;-81
2023/04/15 15:17:56;;;;;;;4.85;0.90;;;;;;;;;;5012593;28;20034;-81
2023/04/15 15:20:22;;;;;;;3.72;0.90;;;;;;;;;;5012577;28;20034;-80
2023/04/15 15:22:47;;;;;;;3.72;1.02;;;;;;;;;;5012684;28;20496;-81
2023/04/15 15:25:13;;;;;;;4.20;0.90;;;;;;;;;;5012651;28;20022;-81
2023/04/15 15:27:38;;;;;;;3.15;0.90;;;;;;;;;;5012242;28;20022;-81
2023/04/15 15:30:05;;;;;;;6.95;1.10;;;;;;;;;;5012544;28;20436;-81
2023/04/15 15:32:31;;;;;;;2.92;0.90;;;;;;;;;;5012443;28;20029;-81
2023/04/15 15:34:56;;;;;;;3.95;1.00;;;;;;;;;;5012370;28;20030;-80
2023/04/15 15:37:21;;;;;;;7.70;1.25;;;;;;;;;;5012238;28;20072;-82
2023/04/15 15:39:47;;;;;;;4.65;0.93;;;;;;;;;;5012416;28;20465;-80
2023/04/15 15:42:12;;;;;;;4.80;1.33;;;;;;;;;;5012296;28;20026;-83
2023/04/15 15:44:38;;;;;;;3.90;1.02;;;;;;;;;;5012306;28;20417;-79
2023/04/15 15:47:04;;;;;;;6.93;1.13;;;;;;;;;;5012132;28;20026;-79
2023/04/15 15:49:30;;;;;;;4.35;1.10;;;;;;;;;;5011728;28;20398;-80
2023/04/15 15:51:56;;;;;;;4.70;0.90;;;;;;;;;;5012100;28;20018;-81
2023/04/15 15:54:21;;;;;;;5.25;0.93;;;;;;;;;;5012044;28;20036;-80
2023/04/15 15:56:47;;;;;;;5.30;1.13;;;;;;;;;;5011958;28;20104;-79
2023/04/15 15:59:12;;;;;;;4.97;1.05;;;;;;;;;;5011833;28;20102;-79
2023/04/15 16:01:38;;;;;;;4.60;1.10;;;;;;;;;;5012039;28;20108;-81
2023/04/15 16:04:04;;;;;;;5.68;1.20;;;;;;;;;;5010488;28;20030;-79
2023/04/15 16:06:30;;;;;;;3.85;0.90;;;;;;;;;;5011637;28;20588;-80
2023/04/15 16:08:55;;;;;;;8.52;1.10;;;;;;;;;;5011250;28;20069;-79
2023/04/15 16:11:22;;;;;;;6.60;1.25;;;;;;;;;;5011683;28;20026;-75
2023/04/15 16:13:47;;;;;;;5.20;1.40;;;;;;;;;;5011715;28;20029;-71
2023/04/15 16:16:12;;;;;;;4.78;1.10;;;;;;;;;;5011878;28;20505;-75
2023/04/15 16:18:38;;;;;;;5.80;1.10;;;;;;;;;;5011531;28;20028;-84
2023/04/15 16:21:04;;;;;;;3.92;0.95;;;;;;;;;;5011779;28;20045;-83
2023/04/15 16:23:29;;;;;;;5.57;1.08;;;;;;;;;;5011551;28;20033;-86
2023/04/15 16:25:56;;;;;;;5.63;1.33;;;;;;;;;;5011393;28;20029;-80
2023/04/15 16:28:22;;;;;;;4.20;1.00;;;;;;;;;;5011120;28;20030;-78
2023/04/15 16:30:47;;;;;;;3.72;1.00;;;;;;;;;;5011463;28;20038;-78
2023/04/15 16:33:12;;;;;;;8.05;0.93;;;;;;;;;;5011507;28;20048;-76
2023/04/15 16:35:38;;;;;;;3.17;1.00;;;;;;;;;;5011699;28;20060;-83
2023/04/15 16:38:03;;;;;;;1.92;0.82;;;;;;;;;;5011231;28;20516;-79
2023/04/15 16:40:29;;;;;;;5.35;1.05;;;;;;;;;;5011229;28;20030;-78
2023/04/15 16:42:54;;;;;;;5.05;1.00;;;;;;;;;;5011000;28;20113;-79
2023/04/15 16:45:20;;;;;;;5.45;0.90;;;;;;;;;;5011065;28;20038;-78
2023/04/15 16:47:45;;;;;;;3.60;1.00;;;;;;;;;;5010941;28;20033;-75
2023/04/15 16:50:11;;;;;;;3.88;1.02;;;;;;;;;;5010864;28;20115;-74
2023/04/15 16:52:36;;;;;;;8.25;1.20;;;;;;;;;;5010993;28;20436;-74
2023/04/15 16:55:03;;;;;;;3.40;1.02;;;;;;;;;;5010943;28;20707;-74
2023/04/15 16:57:29;;;;;;;3.35;0.90;;;;;;;;;;5010770;28;20034;-77
2023/04/15 16:59:54;;;;;;;6.57;1.25;;;;;;;;;;5010682;28;20022;-78
2023/04/15 17:02:20;;;;;;;4.68;1.02;;;;;;;;;;5010799;28;20038;-77
2023/04/15 17:04:45;;;;;;;6.45;1.10;;;;;;;;;;5010767;28;20030;-76
2023/04/15 17:07:10;;;;;;;5.80;1.23;;;;;;;;;;5010797;28;20054;-76
2023/04/15 17:09:38;;;;;;;8.57;1.10;;;;;;;;;;5010521;28;20061;-69
2023/04/15 17:12:04;;;;;;;5.82;1.10;;;;;;;;;;5010583;28;20036;-75
2023/04/15 17:14:31;;;;;;;7.03;1.33;;;;;;;;;;5010655;28;20026;-75
2023/04/15 17:16:56;;;;;;;7.07;1.10;;;;;;;;;;5010041;28;20161;-76
2023/04/15 17:19:22;;;;;;;5.70;1.02;;;;;;;;;;5010404;28;20038;-79
2023/04/15 17:21:47;;;;;;;4.50;1.02;;;;;;;;;;5010642;28;20091;-75
2023/04/15 17:24:13;;;;;;;9.52;1.33;;;;;;;;;;5010595;28;20112;-76
2023/04/15 17:26:38;;;;;;;5.88;1.10;;;;;;;;;;5010362;28;20049;-79
2023/04/15 17:29:04;;;;;;;4.38;1.10;;;;;;;;;;5010474;28;20117;-82
2023/04/15 17:31:29;;;;;;;3.83;1.15;;;;;;;;;;5012542;28;20493;-76
2023/04/15 17:33:56;;;;;;;3.70;1.10;;;;;;;;;;5010366;28;20029;-77
2023/04/15 17:36:25;;;;;;;5.75;0.90;;;;;;;;;;5010135;28;20104;-76
2023/04/15 17:38:51;;;;;;;5.45;1.00;;;;;;;;;;5010103;28;20026;-78
2023/04/15 17:41:16;;;;;;;6.85;1.20;;;;;;;;;;5010362;28;20033;-71
2023/04/15 17:43:42;;;;;;;5.47;1.05;;;;;;;;;;5010248;28;20113;-76
2023/04/15 17:46:07;;;;;;;5.40;1.13;;;;;;;;;;5010344;28;20029;-75
2023/04/15 17:48:33;;;;;;;4.13;1.13;;;;;;;;;;5009757;28;20030;-76
2023/04/15 17:50:59;;;;;;;6.18;1.38;;;;;;;;;;5010189;28;20030;-75
2023/04/15 17:53:24;;;;;;;5.30;1.00;;;;;;;;;;5010056;28;20037;-76
2023/04/15 17:55:51;;;;;;;4.10;0.85;;;;;;;;;;5010151;28;20075;-73
2023/04/15 17:58:20;;;;;;;5.93;1.10;;;;;;;;;;5010174;28;20597;-73
2023/04/15 18:00:46;;;;;;;7.47;1.20;;;;;;;;;;5009887;28;20037;-71
2023/04/15 18:03:11;;;;;;;5.32;1.25;;;;;;;;;;5010211;28;20033;-71
2023/04/15 18:05:37;;;;;;;4.93;1.15;;;;;;;;;;5008760;28;20061;-74
2023/04/15 18:08:02;;;;;;;3.13;1.00;;;;;;;;;;5009654;28;20046;-76
2023/04/15 18:10:28;;;;;;;3.67;1.08;;;;;;;;;;5009863;28;20041;-74
2023/04/15 18:12:53;;;;;;;3.90;1.23;;;;;;;;;;5009675;28;20029;-76
2023/04/15 18:15:18;;;;;;;3.60;1.10;;;;;;;;;;5010000;28;20061;-69
2023/04/15 18:17:44;;;;;;;5.45;1.30;;;;;;;;;;5010122;28;20053;-64
2023/04/15 18:20:10;;;;;;;4.80;1.40;;;;;;;;;;5009969;28;20065;-64
2023/04/15 18:22:35;;;;;;;4.57;1.20;;;;;;;;;;5010085;28;20034;-74
2023/04/15 18:25:03;;;;;;;5.22;1.40;;;;;;;;;;5009778;28;20030;-75
2023/04/15 18:27:30;;;;;;;6.75;1.77;;;;;;;;;;5009598;28;20026;-76
2023/04/15 18:29:56;;;;;;;6.07;1.60;;;;;;;;;;5011228;28;20033;-76
2023/04/15 18:32:21;;;;;;;4.93;1.30;;;;;;;;;;5012440;28;20389;-75
2023/04/15 18:34:47;;;;;;;5.18;1.35;;;;;;;;;;5013863;28;20396;-74
2023/04/15 18:37:12;;;;;;;6.68;1.67;;;;;;;;;;5013861;28;20034;-78
2023/04/15 18:39:38;;;;;;;6.47;1.35;;;;;;;;;;5013710;28;20088;-75
2023/04/15 18:42:03;;;;;;;4.88;1.13;;;;;;;;;;5013471;28;20030;-76
2023/04/15 18:44:31;;;;;;;4.88;1.38;;;;;;;;;;5013487;28;20033;-75
2023/04/15 18:46:57;;;;;;;5.85;1.40;;;;;;;;;;5013392;28;20456;-77
2023/04/15 18:49:22;;;;;;;3.90;1.50;;;;;;;;;;5013184;28;20098;-79
2023/04/15 18:51:48;;;;;;;3.88;1.20;;;;;;;;;;5013515;28;20022;-76
2023/04/15 18:54:13;;;;;;;4.80;1.40;;;;;;;;;;5013487;28;20026;-76
2023/04/15 18:56:39;;;;;;;4.88;1.40;;;;;;;;;;5013538;28;20033;-77
2023/04/15 18:59:05;;;;;;;5.55;1.30;;;;;;;;;;5012964;28;20076;-76
2023/04/15 19:01:31;;;;;;;12.20;1.50;;;;;;;;;;5013189;28;20045;-78
2023/04/15 19:03:56;;;;;;;4.10;1.33;;;;;;;;;;5013143;28;20022;-79
2023/04/15 19:06:22;;;;;;;4.25;1.40;;;;;;;;;;5013195;28;20034;-75
2023/04/15 19:08:47;;;;;;;5.05;1.40;;;;;;;;;;5012923;28;20123;-76
2023/04/15 19:11:13;;;;;;;4.60;1.00;;;;;;;;;;5012873;28;20109;-76
2023/04/15 19:13:38;;;;;;;4.57;1.30;;;;;;;;;;5013021;28;20732;-76
2023/04/15 19:16:04;;;;;;;3.83;1.15;;;;;;;;;;5013006;28;20493;-76
2023/04/15 19:18:29;;;;;;;4.78;1.15;;;;;;;;;;5012929;28;20033;-75
2023/04/15 19:20:55;;;;;;;6.47;1.50;;;;;;;;;;5012682;28;20026;-78
2023/04/15 19:23:22;;;;;;;3.85;1.15;;;;;;;;;;5012741;28;20034;-73
2023/04/15 19:25:48;;;;;;;7.85;1.23;;;;;;;;;;5012843;28;20396;-76
2023/04/15 19:28:16;;;;;;;6.28;1.20;;;;;;;;;;5012664;28;20481;-75
2023/04/15 19:30:41;;;;;;;6.22;1.20;;;;;;;;;;5012581;28;20060;-75
2023/04/15 19:33:07;;;;;;;4.65;1.15;;;;;;;;;;5012738;28;20501;-76
2023/04/15 19:35:32;;;;;;;7.13;1.33;;;;;;;;;;5012426;28;20038;-76
2023/04/15 19:37:58;;;;;;;5.72;1.10;;;;;;;;;;5012531;28;20032;-75
2023/04/15 19:40:23;;;;;;;9.18;1.40;;;;;;;;;;5011635;28;20057;-76
2023/04/15 19:42:49;;;;;;;3.67;1.30;;;;;;;;;;5012052;28;20030;-76
2023/04/15 19:45:14;;;;;;;4.18;1.30;;;;;;;;;;5012622;28;20108;-75
2023/04/15 19:47:40;;;;;;;4.28;1.50;;;;;;;;;;5012394;28;20021;-75
2023/04/15 19:50:06;;;;;;;5.65;1.33;;;;;;;;;;5012184;28;20050;-78
2023/04/15 19:52:32;;;;;;;5.45;1.30;;;;;;;;;;5012418;28;20395;-75
2023/04/15 19:54:58;;;;;;;3.30;1.10;;;;;;;;;;5012190;28;20026;-77
2023/04/15 19:57:24;;;;;;;5.20;1.20;;;;;;;;;;5012277;28;20412;-78
2023/04/15 19:59:49;;;;;;;4.95;1.33;;;;;;;;;;5011968;28;20511;-78
2023/04/15 20:02:14;;;;;;;5.68;1.30;;;;;;;;;;5012019;28;20028;-78
2023/04/15 20:04:40;;;;;;;7.05;1.50;;;;;;;;;;5012213;28;20064;-76
2023/04/15 20:07:05;;;;;;;4.40;1.30;;;;;;;;;;5011964;28;20097;-76
2023/04/15 20:09:34;;;;;;;6.40;1.20;;;;;;;;;;5011846;28;20034;-78
2023/04/15 20:11:59;;;;;;;8.25;1.40;;;;;;;;;;5011904;28;20025;-77
2023/04/15 20:14:25;;;;;;;5.03;1.35;;;;;;;;;;5011718;28;20072;-78
2023/04/15 20:16:50;;;;;;;7.07;1.10;;;;;;;;;;5011944;28;20030;-78
2023/04/15 20:19:16;;;;;;;8.93;1.33;;;;;;;;;;5011830;28;20021;-78
2023/04/15 20:21:41;;;;;;;2.85;1.05;;;;;;;;;;5011603;28;20117;-78
2023/04/15 20:24:07;;;;;;;4.60;1.20;;;;;;;;;;5011649;28;20038;-78
2023/04/15 20:26:32;;;;;;;4.95;1.02;;;;;;;;;;5011551;28;20022;-77
2023/04/15 20:28:58;;;;;;;7.13;1.42;;;;;;;;;;5010022;28;20041;-79
2023/04/15 20:31:24;;;;;;;4.15;0.98;;;;;;;;;;5011530;28;20080;-78
2023/04/15 20:33:49;;;;;;;5.90;1.08;;;;;;;;;;5011521;28;20037;-78
2023/04/15 20:36:15;;;;;;;6.47;1.42;;;;;;;;;;5011647;28;20512;-76
2023/04/15 20:38:40;;;;;;;4.72;0.90;;;;;;;;;;5011479;28;20474;-78
2023/04/15 20:41:05;;;;;;;6.80;1.33;;;;;;;;;;5011337;28;20567;-75
2023/04/15 20:43:31;;;;;;;6.05;1.17;;;;;;;;;;5011459;28;20026;-75
2023/04/15 20:45:57;;;;;;;4.05;0.93;;;;;;;;;;5011362;28;20026;-78
2023/04/15 20:48:23;;;;;;;5.40;1.27;;;;;;;;;;5011038;28;20026;-77
2023/04/15 20:50:49;;;;;;;3.35;1.08;;;;;;;;;;5011036;28;20466;-77
2023/04/15 20:53:14;;;;;;;6.10;1.88;;;;;;;;;;5010397;28;20022;-77
2023/04/15 20:55:42;;;;;;;7.47;1.15;;;;;;;;;;5011162;28;20052;-78
2023/04/15 20:58:07;;;;;;;4.28;1.10;;;;;;;;;;5011078;28;20029;-78
2023/04/15 21:00:33;;;;;;;4.68;1.50;;;;;;;;;;5010884;28;20038;-78
2023/04/15 21:02:58;;;;;;;4.13;1.10;;;;;;;;;;5011137;28;20033;-77
2023/04/15 21:05:24;;;;;;;6.45;1.10;;;;;;;;;;5010786;28;20033;-77
2023/04/15 21:07:49;;;;;;;4.68;1.42;;;;;;;;;;5010680;28;20065;-77
2023/04/15 21:10:15;;;;;;;6.75;1.23;;;;;;;;;;5010836;28;20026;-78
2023/04/15 21:12:41;;;;;;;3.78;1.00;;;;;;;;;;5010568;28;20029;-77
2023/04/15 21:15:07;;;;;;;6.03;1.25;;;;;;;;;;5010954;28;20354;-78
2023/04/15 21:17:34;;;;;;;5.28;1.17;;;;;;;;;;5009793;28;20397;-78
2023/04/15 21:19:59;;;;;;;6.53;1.30;;;;;;;;;;5010589;28;20026;-77
2023/04/15 21:22:25;;;;;;;4.50;1.10;;;;;;;;;;5010661;28;20028;-77
2023/04/15 21:24:50;;;;;;;4.45;1.05;;;;;;;;;;5010396;28;20029;-78
2023/04/15 21:27:16;;;;;;;3.45;1.00;;;;;;;;;;5010401;28;20504;-78
2023/04/15 21:29:41;;;;;;;8.18;1.20;;;;;;;;;;5010563;28;20066;-77
2023/04/15 21:32:06;;;;;;;7.07;1.20;;;;;;;;;;5010331;28;20018;-77
2023/04/15 21:34:32;;;;;;;7.45;1.10;;;;;;;;;;5010504;28;20029;-76
2023/04/15 21:36:57;;;;;;;4.22;1.20;;;;;;;;;;5010329;28;20532;-76
2023/04/15 21:39:23;;;;;;;5.43;1.02;;;;;;;;;;5010210;28;20098;-78
2023/04/15 21:41:49;;;;;;;4.75;1.10;;;;;;;;;;5010050;28;20080;-77
2023/04/15 21:44:14;;;;;;;6.75;1.30;;;;;;;;;;5008889;28;20540;-77
2023/04/15 21:46:40;;;;;;;2.80;0.80;;;;;;;;;;5010300;28;20497;-78
2023/04/15 21:49:05;;;;;;;4.18;1.08;;;;;;;;;;5010227;28;20116;-78
2023/04/15 21:51:31;;;;;;;4.97;1.20;;;;;;;;;;5010188;28;20408;-78
2023/04/15 21:53:57;;;;;;;5.47;1.27;;;;;;;;;;5010339;28;20080;-78
2023/04/15 21:56:24;;;;;;;3.85;1.00;;;;;;;;;;5008714;28;20037;-77
2023/04/15 21:58:55;;;;;;;4.72;1.17;;;;;;;;;;5010008;28;20065;-77
2023/04/15 22:01:21;;;;;;;4.85;1.10;;;;;;;;;;5009824;28;20037;-77
2023/04/15 22:03:46;;;;;;;2.65;0.80;;;;;;;;;;5009923;28;20033;-78
2023/04/15 22:06:12;;;;;;;3.72;1.02;;;;;;;;;;5010117;28;20088;-78
2023/04/15 22:08:38;;;;;;;5.40;1.10;;;;;;;;;;5009609;28;20145;-77
2023/04/15 22:11:03;;;;;;;7.30;1.40;;;;;;;;;;5009938;28;20033;-77
2023/04/15 22:13:29;;;;;;;4.28;1.00;;;;;;;;;;5009864;28;20168;-78
2023/04/15 22:15:54;;;;;;;4.35;0.95;;;;;;;;;;5009939;28;20022;-78
2023/04/15 22:18:19;;;;;;;2.95;0.80;;;;;;;;;;5009886;28;20498;-77
2023/04/15 22:20:45;;;;;;;3.92;1.00;;;;;;;;;;5009674;28;20030;-78
2023/04/15 22:23:10;;;;;;;3.65;1.13;;;;;;;;;;5009940;28;20022;-76
2023/04/15 22:25:36;;;;;;;4.28;1.00;;;;;;;;;;5010004;28;20470;-77
2023/04/15 22:28:07;;;;;;;5.20;1.10;;;;;;;;;;5009626;28;20032;-78
2023/04/15 22:30:36;;;;;;;4.80;0.85;;;;;;;;;;5009722;28;20037;-78
2023/04/15 22:33:02;;;;;;;3.95;0.85;;;;;;;;;;5009847;28;20068;-77
2023/04/15 22:35:27;;;;;;;4.25;0.98;;;;;;;;;;5009649;28;20022;-78
2023/04/15 22:37:52;;;;;;;5.78;1.00;;;;;;;;;;5009628;28;20022;-78
2023/04/15 22:40:18;;;;;;;3.63;1.00;;;;;;;;;;5009634;28;20447;-78
2023/04/15 22:42:45;;;;;;;3.35;0.93;;;;;;;;;;5009548;28;20433;-78
2023/04/15 22:45:10;;;;;;;4.18;0.95;;;;;;;;;;5009807;28;20017;-78
2023/04/15 22:47:36;;;;;;;8.05;1.10;;;;;;;;;;5009623;28;20113;-78
2023/04/15 22:50:01;;;;;;;5.70;1.05;;;;;;;;;;5009594;28;20096;-77
2023/04/15 22:52:26;;;;;;;3.58;0.95;;;;;;;;;;5009356;28;20022;-78
2023/04/15 22:54:52;;;;;;;3.78;0.98;;;;;;;;;;5009403;28;20113;-78
2023/04/15 22:57:17;;;;;;;6.80;0.95;;;;;;;;;;5009533;28;20466;-77
2023/04/15 22:59:42;;;;;;;5.60;0.93;;;;;;;;;;5009649;28;20057;-78
2023/04/15 23:02:08;;;;;;;7.40;1.25;;;;;;;;;;5009546;28;20109;-78
2023/04/15 23:04:33;;;;;;;5.28;1.00;;;;;;;;;;5009636;28;20022;-78
2023/04/15 23:06:59;;;;;;;7.63;0.90;;;;;;;;;;5009531;28;20029;-78
2023/04/15 23:09:25;;;;;;;3.25;0.80;;;;;;;;;;5009114;28;20454;-78
2023/04/15 23:11:50;;;;;;;5.35;1.10;;;;;;;;;;5009183;28;20085;-78
2023/04/15 23:14:15;;;;;;;6.63;1.10;;;;;;;;;;5009339;28;20490;-71
2023/04/15 23:16:41;;;;;;;5.93;0.95;;;;;;;;;;5012001;28;20444;-77
2023/04/15 23:19:06;;;;;;;3.47;1.00;;;;;;;;;;5012977;28;20113;-77
2023/04/15 23:21:32;;;;;;;3.55;0.93;;;;;;;;;;5012920;28;20169;-77
2023/04/15 23:23:57;;;;;;;6.55;1.10;;;;;;;;;;5012907;28;20390;-76
2023/04/15 23:26:23;;;;;;;7.00;1.10;;;;;;;;;;5012613;28;20045;-76
2023/04/15 23:28:48;;;;;;;5.68;1.00;;;;;;;;;;5012569;28;20061;-77
2023/04/15 23:31:13;;;;;;;5.28;0.90;;;;;;;;;;5012521;28;20231;-73
2023/04/15 23:33:39;;;;;;;5.05;0.98;;;;;;;;;;5012593;28;20026;-77
2023/04/15 23:36:05;;;;;;;4.93;1.20;;;;;;;;;;5012759;28;20018;-76
2023/04/15 23:38:30;;;;;;;2.40;0.80;;;;;;;;;;5012591;28;20037;-77
2023/04/15 23:40:55;;;;;;;5.43;1.00;;;;;;;;;;5012393;28;20473;-78
2023/04/15 23:43:21;;;;;;;4.88;1.00;;;;;;;;;;5012353;28;20026;-77
2023/04/15 23:45:46;;;;;;;6.50;1.52;;;;;;;;;;5012390;28;20074;-78
2023/04/15 23:48:12;;;;;;;6.53;1.02;;;;;;;;;;5012302;28;20037;-77
2023/04/15 23:50:37;;;;;;;4.55;1.00;;;;;;;;;;5012285;28;20026;-78
2023/04/15 23:53:03;;;;;;;3.97;1.10;;;;;;;;;;5012152;28;20038;-77
2023/04/15 23:55:29;;;;;;;4.97;0.90;;;;;;;;;;5012388;28;20022;-78
2023/04/15 23:57:54;;;;;;;4.30;0.90;;;;;;;;;;5012170;28;20026;-78
